createdAt,value
2019-04-26T00:04:50.417Z,1.10
2019-04-26T00:09:57.671Z,1.00
2019-04-26T00:15:20.119Z,1.10
2019-04-26T00:20:25.713Z,1.07
2019-04-26T00:25:31.025Z,1.30
2019-04-26T00:30:37.487Z,1.15
2019-04-26T00:35:47.689Z,1.20
2019-04-26T00:40:51.973Z,1.22
2019-04-26T00:45:59.233Z,1.20
2019-04-26T00:51:06.562Z,1.20
2019-04-26T00:56:14.560Z,1.20
2019-04-26T01:01:22.765Z,1.30
2019-04-26T01:06:30.624Z,1.20
2019-04-26T01:11:36.008Z,1.27
2019-04-26T01:16:41.294Z,1.50
2019-04-26T01:22:08.541Z,1.20
2019-04-26T01:27:33.903Z,1.40
2019-04-26T01:32:42.696Z,1.40
2019-04-26T01:37:50.622Z,1.40
2019-04-26T01:43:04.485Z,1.50
2019-04-26T01:48:37.029Z,1.50
2019-04-26T01:53:43.538Z,1.50
2019-04-26T01:58:50.161Z,1.50
2019-04-26T02:03:55.602Z,1.60
2019-04-26T02:09:01.022Z,2.10
2019-04-26T02:14:08.396Z,1.95
2019-04-26T02:19:13.740Z,1.80
2019-04-26T02:24:32.128Z,1.90
2019-04-26T02:29:37.887Z,1.60
2019-04-26T02:34:43.140Z,1.80
2019-04-26T02:39:48.899Z,1.70
2019-04-26T02:45:36.231Z,2.20
2019-04-26T02:50:47.962Z,2.30
2019-04-26T02:56:24.883Z,2.15
2019-04-26T03:01:32.323Z,2.22
2019-04-26T03:06:42.767Z,2.40
2019-04-26T03:11:51.788Z,2.30
2019-04-26T03:17:17.963Z,1.90
2019-04-26T03:23:19.538Z,2.30
2019-04-26T03:28:40.022Z,2.30
2019-04-26T03:34:30.213Z,2.30
2019-04-26T03:39:54.308Z,2.30
2019-04-26T03:45:24.958Z,2.20
2019-04-26T03:50:39.555Z,2.20
2019-04-26T03:56:06.721Z,2.50
2019-04-26T04:01:13.294Z,2.47
2019-04-26T04:06:25.695Z,2.17
2019-04-26T04:11:39.935Z,2.27
2019-04-26T04:17:28.811Z,2.50
2019-04-26T04:22:41.096Z,2.90
2019-04-26T04:27:56.400Z,2.62
2019-04-26T04:33:33.104Z,2.77
2019-04-26T04:39:15.790Z,2.87
2019-04-26T04:45:05.937Z,3.00
2019-04-26T04:50:27.792Z,3.12
2019-04-26T04:55:59.810Z,3.22
2019-04-26T05:01:50.361Z,3.30
2019-04-26T05:07:19.988Z,3.20
2019-04-26T05:12:38.462Z,3.37
2019-04-26T05:18:13.429Z,3.60
2019-04-26T05:24:06.402Z,3.47
2019-04-26T05:29:34.657Z,3.65
2019-04-26T05:34:50.817Z,3.80
2019-04-26T05:40:38.807Z,3.92
2019-04-26T05:46:28.999Z,3.25
2019-04-26T05:52:13.717Z,3.17
2019-04-26T05:58:12.113Z,3.50
2019-04-26T06:04:09.220Z,3.60
2019-04-26T06:09:59.587Z,3.30
2019-04-26T06:15:30.905Z,3.50
2019-04-26T06:20:46.994Z,3.10
2019-04-26T06:26:49.233Z,3.77
2019-04-26T06:32:14.588Z,3.67
2019-04-26T06:37:35.624Z,3.60
2019-04-26T06:43:30.458Z,3.50
2019-04-26T06:49:03.417Z,3.73
2019-04-26T06:54:28.390Z,3.22
2019-04-26T07:00:06.671Z,3.27
2019-04-26T07:05:21.991Z,3.37
2019-04-26T07:11:00.553Z,3.00
2019-04-26T07:16:22.271Z,2.92
2019-04-26T07:21:54.022Z,3.10
2019-04-26T07:27:44.569Z,3.30
2019-04-26T07:33:18.933Z,3.12
2019-04-26T07:39:16.482Z,3.00
2019-04-26T07:44:32.410Z,3.02
2019-04-26T07:50:21.089Z,2.98
2019-04-26T07:55:40.443Z,3.17
2019-04-26T08:00:54.245Z,3.35
2019-04-26T08:06:16.017Z,3.00
2019-04-26T08:11:29.562Z,3.00
2019-04-26T08:16:49.773Z,2.90
2019-04-26T08:22:11.487Z,2.85
2019-04-26T08:27:23.221Z,2.70
2019-04-26T08:32:32.065Z,2.77
2019-04-26T08:37:53.542Z,2.80
2019-04-26T08:43:31.887Z,2.60
2019-04-26T08:48:48.848Z,3.00
2019-04-26T08:53:56.903Z,2.80
2019-04-26T08:59:07.580Z,3.20
2019-04-26T09:04:21.920Z,2.90
2019-04-26T09:09:32.283Z,2.72
2019-04-26T09:14:39.890Z,2.87
2019-04-26T09:19:45.709Z,3.30
2019-04-26T09:25:15.935Z,2.90
2019-04-26T09:30:49.288Z,2.77
2019-04-26T09:35:54.745Z,3.20
2019-04-26T09:41:00.619Z,3.00
2019-04-26T09:46:16.447Z,3.00
2019-04-26T09:51:22.464Z,3.10
2019-04-26T09:56:27.936Z,3.13
2019-04-26T10:01:33.903Z,2.90
2019-04-26T10:06:39.174Z,2.98
2019-04-26T10:11:49.309Z,2.87
2019-04-26T10:17:15.579Z,3.00
2019-04-26T10:22:19.011Z,2.80
2019-04-26T10:27:24.355Z,2.80
2019-04-26T10:37:39.508Z,3.17
2019-04-26T10:42:42.359Z,2.92
2019-04-26T10:47:47.717Z,2.90
2019-04-26T10:52:59.766Z,2.60
2019-04-26T10:58:13.363Z,2.50
2019-04-26T11:03:19.282Z,2.30
2019-04-26T11:08:24.617Z,2.58
2019-04-26T11:13:31.109Z,2.52
2019-04-26T11:18:36.648Z,2.40
2019-04-26T11:23:45.477Z,2.55
2019-04-26T11:28:51.291Z,2.50
2019-04-26T11:34:05.048Z,2.60
2019-04-26T11:39:05.423Z,2.20
2019-04-26T11:44:11.484Z,2.30
2019-04-26T11:49:16.778Z,2.30
2019-04-26T11:54:22.217Z,2.10
2019-04-26T11:59:30.684Z,2.05
2019-04-26T12:04:55.077Z,2.40
2019-04-26T12:10:05.831Z,2.27
2019-04-26T12:15:10.261Z,2.47
2019-04-26T12:20:15.620Z,2.20
2019-04-26T12:25:21.006Z,2.30
2019-04-26T12:30:26.945Z,2.08
2019-04-26T12:35:32.161Z,1.97
2019-04-26T12:40:37.510Z,1.90
2019-04-26T12:45:56.724Z,1.80
2019-04-26T12:51:02.401Z,1.65
2019-04-26T12:56:07.858Z,1.80
2019-04-26T13:01:13.989Z,1.80
2019-04-26T13:06:19.277Z,1.80
2019-04-26T13:11:48.923Z,1.92
2019-04-26T13:17:02.262Z,1.70
2019-04-26T13:22:08.541Z,1.77
2019-04-26T13:27:14.956Z,1.90
2019-04-26T13:32:20.300Z,1.90
2019-04-26T13:37:32.167Z,1.65
2019-04-26T13:42:37.531Z,1.90
2019-04-26T13:48:00.487Z,1.50
2019-04-26T13:53:05.790Z,1.50
2019-04-26T13:58:15.482Z,1.50
2019-04-26T14:03:19.387Z,1.57
2019-04-26T14:08:24.907Z,1.40
2019-04-26T14:13:34.644Z,1.30
2019-04-26T14:18:40.747Z,1.55
2019-04-26T14:24:05.819Z,1.50
2019-04-26T14:29:13.381Z,1.70
2019-04-26T14:34:19.248Z,4.17
2019-04-26T14:39:38.266Z,1.60
2019-04-26T14:44:32.868Z,1.42
2019-04-26T14:49:39.147Z,1.40
2019-04-26T14:54:45.951Z,1.33
2019-04-26T14:59:57.492Z,1.20
2019-04-26T15:05:24.809Z,1.20
2019-04-26T15:10:45.812Z,1.30
2019-04-26T15:15:45.963Z,1.42
2019-04-26T15:20:53.101Z,1.45
2019-04-26T15:25:58.604Z,1.20
2019-04-26T15:31:04.417Z,1.12
2019-04-26T15:36:11.220Z,1.90
2019-04-26T15:41:28.197Z,1.40
2019-04-26T15:47:03.955Z,1.30
2019-04-26T15:52:08.312Z,1.30
2019-04-26T15:57:13.810Z,1.40
2019-04-26T16:02:23.073Z,1.20
2019-04-26T16:07:28.836Z,1.30
2019-04-26T16:12:34.491Z,1.40
2019-04-26T16:17:40.360Z,1.32
2019-04-26T16:22:49.002Z,1.37
2019-04-26T16:28:12.833Z,1.27
2019-04-26T16:33:28.499Z,1.40
2019-04-26T16:38:37.761Z,1.10
2019-04-26T16:43:53.202Z,1.30
2019-04-26T16:48:56.745Z,1.12
2019-04-26T16:54:08.776Z,1.22
2019-04-26T16:59:14.333Z,1.00
2019-04-26T17:04:19.938Z,1.30
2019-04-26T17:09:23.601Z,1.20
2019-04-26T17:14:29.090Z,1.20
2019-04-26T17:19:37.478Z,1.73
2019-04-26T17:25:12.705Z,1.70
2019-04-26T17:30:22.108Z,1.75
2019-04-26T17:35:27.365Z,1.22
2019-04-26T17:40:36.664Z,1.22
2019-04-26T17:45:42.499Z,1.20
2019-04-26T17:50:47.234Z,1.50
2019-04-26T17:55:54.789Z,1.50
2019-04-26T18:01:01.050Z,1.17
2019-04-26T18:06:09.668Z,1.50
2019-04-26T18:11:19.577Z,1.70
2019-04-26T18:16:22.386Z,1.80
2019-04-26T18:21:45.308Z,1.90
2019-04-26T18:26:54.023Z,1.50
2019-04-26T18:32:03.599Z,1.60
2019-04-26T18:37:07.445Z,1.50
2019-04-26T18:42:14.349Z,1.90
2019-04-26T18:47:28.357Z,1.80
2019-04-26T18:52:37.315Z,1.77
2019-04-26T18:57:43.108Z,1.67
2019-04-26T19:02:52.370Z,2.08
2019-04-26T19:07:55.508Z,2.22
2019-04-26T19:13:07.390Z,2.20
2019-04-26T19:18:17.960Z,1.85
2019-04-26T19:23:28.960Z,2.00
2019-04-26T19:28:30.374Z,2.02
2019-04-26T19:33:36.132Z,1.70
2019-04-26T19:38:45.244Z,1.40
2019-04-26T19:43:48.908Z,1.50
2019-04-26T19:49:25.751Z,1.40
2019-04-26T19:54:39.392Z,1.40
2019-04-26T19:59:44.799Z,1.10
2019-04-26T20:04:51.866Z,1.10
2019-04-26T20:10:02.598Z,1.40
2019-04-26T20:15:04.963Z,1.90
2019-04-26T20:20:19.419Z,1.17
2019-04-26T20:25:18.723Z,1.20
2019-04-26T20:30:52.472Z,1.05
2019-04-26T20:36:01.895Z,1.45
2019-04-26T20:41:05.211Z,1.30
2019-04-26T20:46:15.185Z,1.22
2019-04-26T20:51:18.355Z,1.40
2019-04-26T20:56:23.821Z,1.45
2019-04-26T21:01:29.872Z,1.40
2019-04-26T21:06:36.907Z,2.75
2019-04-26T21:11:43.049Z,3.50
2019-04-26T21:16:50.513Z,2.50
2019-04-26T21:21:56.298Z,2.55
2019-04-26T21:27:17.744Z,2.30
2019-04-26T21:32:40.696Z,2.30
2019-04-26T21:37:54.011Z,2.10
2019-04-26T21:43:03.117Z,1.77
2019-04-26T21:48:09.158Z,2.30
2019-04-26T21:53:14.417Z,1.98
2019-04-26T21:58:20.012Z,2.00
2019-04-26T22:03:25.413Z,2.60
2019-04-26T22:08:34.737Z,3.60
2019-04-26T22:13:51.236Z,3.40
2019-04-26T22:19:14.671Z,5.30
2019-04-26T22:24:28.749Z,2.90
2019-04-26T22:29:34.827Z,2.45
2019-04-26T22:34:41.323Z,2.10
2019-04-26T22:39:47.822Z,2.27
2019-04-26T22:45:03.340Z,1.90
2019-04-26T22:50:09.257Z,3.60
2019-04-26T22:55:15.848Z,4.07
2019-04-26T23:00:27.871Z,3.22
2019-04-26T23:05:30.737Z,2.30
2019-04-26T23:10:43.951Z,2.27
2019-04-26T23:16:15.097Z,2.20
2019-04-26T23:21:25.074Z,2.20
2019-04-26T23:26:30.448Z,2.00
2019-04-26T23:31:37.458Z,3.67
2019-04-26T23:36:43.704Z,4.47
2019-04-26T23:41:49.367Z,1.77
2019-04-26T23:47:01.028Z,1.60
2019-04-26T23:52:03.364Z,1.35
2019-04-26T23:57:09.646Z,1.60
